Time;durP1;ratioP1;P1;durP2;ratioP2;P2;SDS_P1;SDS_P2;PMS_P1;PMS_P2;Temp;Humidity;BMP_temperature;BMP_pressure;BME280_temperature;BME280_humidity;BME280_pressure;Samples;Min_cycle;Max_cycle;Signal;HPM_P1;HPM_P2
2020/12/07 00:00:14;;;;;;;32.60;12.60;;;;;;;1.76;82.42;98350.83;2139534;83;21296;-61
2020/12/07 00:03:17;;;;;;;32.45;13.85;;;;;;;1.70;82.38;98361.75;2140079;83;21124;-61
2020/12/07 00:06:19;;;;;;;34.00;13.20;;;;;;;1.67;82.24;98349.39;2139884;83;21296;-61
2020/12/07 00:09:20;;;;;;;33.92;12.20;;;;;;;1.64;82.68;98345.16;2139474;83;21721;-62
2020/12/07 00:12:21;;;;;;;28.95;11.93;;;;;;;1.61;82.51;98346.55;2139928;83;21285;-61
2020/12/07 00:15:22;;;;;;;31.52;13.40;;;;;;;1.62;82.64;98347.38;2139761;83;21296;-62
2020/12/07 00:18:24;;;;;;;31.37;13.08;;;;;;;1.62;82.41;98349.52;2139512;83;21614;-61
2020/12/07 00:21:25;;;;;;;31.07;12.68;;;;;;;1.63;82.43;98346.50;2139547;83;21307;-62
2020/12/07 00:24:26;;;;;;;30.90;12.70;;;;;;;1.61;82.44;98343.97;2139445;83;21127;-61
2020/12/07 00:27:27;;;;;;;31.90;12.15;;;;;;;1.59;82.50;98339.27;2139636;83;21268;-61
2020/12/07 00:30:28;;;;;;;29.52;12.13;;;;;;;1.55;82.42;98341.13;2139498;83;21975;-61
2020/12/07 00:33:29;;;;;;;33.08;11.90;;;;;;;1.53;82.62;98345.94;2139441;83;21158;-61
2020/12/07 00:36:30;;;;;;;33.88;13.85;;;;;;;1.48;82.45;98339.63;2139468;83;21268;-61
2020/12/07 00:39:31;;;;;;;30.20;12.23;;;;;;;1.48;82.57;98328.43;2139605;83;21286;-62
2020/12/07 00:42:32;;;;;;;31.27;12.25;;;;;;;1.42;82.73;98328.63;2139864;83;21296;-62
2020/12/07 00:45:34;;;;;;;28.50;11.33;;;;;;;1.40;82.65;98334.31;2139426;83;21626;-62
2020/12/07 00:48:35;;;;;;;29.63;11.80;;;;;;;1.37;82.75;98330.08;2139390;83;21147;-61
2020/12/07 00:51:36;;;;;;;28.87;11.95;;;;;;;1.35;83.07;98318.50;2139372;83;21155;-61
2020/12/07 00:54:37;;;;;;;29.60;11.30;;;;;;;1.36;82.67;98319.34;2139494;83;21293;-61
2020/12/07 00:57:38;;;;;;;30.37;12.55;;;;;;;1.34;82.51;98324.55;2139516;83;21171;-61
2020/12/07 01:00:39;;;;;;;31.68;13.43;;;;;;;1.30;82.96;98326.83;2139355;83;21155;-61
2020/12/07 01:03:41;;;;;;;28.38;11.57;;;;;;;1.30;82.91;98317.78;2139354;83;21214;-61
2020/12/07 01:06:45;;;;;;;27.93;11.22;;;;;;;1.29;82.87;98316.09;2139444;83;21182;-61
2020/12/07 01:09:46;;;;;;;30.40;11.68;;;;;;;1.26;82.92;98314.06;2139347;83;21755;-61
2020/12/07 01:12:47;;;;;;;28.70;11.30;;;;;;;1.24;82.79;98303.78;2139777;83;21372;-61
2020/12/07 01:15:48;;;;;;;33.75;12.40;;;;;;;1.21;83.04;98321.51;2139833;83;21304;-61
2020/12/07 01:18:49;;;;;;;32.98;12.55;;;;;;;1.20;82.87;98319.80;2139483;83;21613;-62
2020/12/07 01:21:50;;;;;;;29.42;12.03;;;;;;;1.21;83.01;98317.63;2139804;83;21158;-61
2020/12/07 01:24:52;;;;;;;31.33;12.25;;;;;;;1.22;83.11;98323.63;2139633;83;21285;-62
2020/12/07 01:27:53;;;;;;;28.77;11.30;;;;;;;1.19;82.97;98320.72;2139345;83;21146;-61
2020/12/07 01:30:54;;;;;;;27.62;10.43;;;;;;;1.17;82.62;98319.91;2139389;83;21150;-61
2020/12/07 01:33:56;;;;;;;30.92;12.00;;;;;;;1.16;83.02;98303.16;2112825;83;21824;-61
2020/12/07 01:36:57;;;;;;;29.35;11.00;;;;;;;1.12;83.01;98304.15;2112613;83;21598;-62
2020/12/07 01:39:58;;;;;;;29.37;11.85;;;;;;;1.06;83.10;98294.02;2139760;83;21340;-62
2020/12/07 01:42:59;;;;;;;30.40;11.73;;;;;;;1.01;82.96;98298.04;2139489;83;21186;-61
2020/12/07 01:46:00;;;;;;;28.27;11.03;;;;;;;0.98;82.88;98289.09;2139457;83;21155;-61
2020/12/07 01:49:02;;;;;;;27.25;10.28;;;;;;;0.95;83.03;98291.32;2139596;83;21292;-61
2020/12/07 01:52:03;;;;;;;30.57;11.08;;;;;;;0.92;83.22;98283.67;2139360;83;21594;-61
2020/12/07 01:55:04;;;;;;;26.73;10.68;;;;;;;0.91;83.58;98284.55;2139794;83;21285;-61
2020/12/07 01:58:05;;;;;;;30.23;12.07;;;;;;;0.89;83.70;98292.80;2139840;83;21261;-61
2020/12/07 02:01:06;;;;;;;29.55;11.83;;;;;;;0.89;83.60;98275.16;2139399;83;21607;-61
2020/12/07 02:04:08;;;;;;;26.77;10.65;;;;;;;0.88;83.16;98275.62;2139817;83;21701;-61
2020/12/07 02:07:09;;;;;;;26.37;10.13;;;;;;;0.87;83.50;98270.04;2139402;83;21610;-61
2020/12/07 02:10:10;;;;;;;29.20;11.43;;;;;;;0.86;83.31;98264.05;2139257;83;21119;-61
2020/12/07 02:13:12;;;;;;;28.07;10.70;;;;;;;0.89;83.18;98252.78;2139437;83;21760;-61
2020/12/07 02:16:13;;;;;;;28.12;10.98;;;;;;;0.89;83.26;98254.50;2139778;83;21272;-61
2020/12/07 02:19:14;;;;;;;28.32;10.28;;;;;;;0.88;82.91;98254.95;2139707;83;21289;-61
2020/12/07 02:22:15;;;;;;;27.52;10.65;;;;;;;0.85;83.11;98257.18;2139388;83;21626;-61
2020/12/07 02:25:19;;;;;;;26.68;9.30;;;;;;;0.83;83.13;98249.08;2139259;83;21292;-61
2020/12/07 02:28:20;;;;;;;28.25;9.75;;;;;;;0.85;83.16;98251.19;2139817;83;21296;-61
2020/12/07 02:31:21;;;;;;;30.37;10.85;;;;;;;0.84;83.01;98251.61;2139549;83;21729;-61
2020/12/07 02:34:22;;;;;;;28.02;11.00;;;;;;;0.80;83.24;98256.92;2139299;83;21167;-61
2020/12/07 02:37:25;;;;;;;29.80;10.25;;;;;;;0.78;83.31;98240.64;2139278;83;21161;-61
2020/12/07 02:40:26;;;;;;;26.48;9.75;;;;;;;0.75;83.27;98241.58;2139304;83;21182;-61
2020/12/07 02:43:27;;;;;;;26.73;10.30;;;;;;;0.75;83.45;98259.65;2139299;83;21313;-61
2020/12/07 02:46:29;;;;;;;26.25;9.65;;;;;;;0.79;83.11;98266.84;2112666;83;21721;-61
2020/12/07 02:49:30;;;;;;;28.83;9.98;;;;;;;0.81;82.88;98277.98;2139402;83;21737;-61
2020/12/07 02:52:31;;;;;;;28.20;10.85;;;;;;;0.85;82.80;98288.63;2139275;83;21161;-61
2020/12/07 02:55:32;;;;;;;26.17;9.38;;;;;;;0.88;82.75;98294.12;2139264;83;21611;-61
2020/12/07 02:58:34;;;;;;;26.77;9.68;;;;;;;0.89;82.67;98288.94;2139936;83;21284;-61
2020/12/07 03:01:35;;;;;;;25.45;9.78;;;;;;;0.91;82.67;98289.72;2139378;83;21610;-61
2020/12/07 03:04:37;;;;;;;27.07;10.13;;;;;;;0.95;82.48;98302.94;2139389;83;21261;-61
2020/12/07 03:07:38;;;;;;;28.60;9.98;;;;;;;0.97;82.36;98302.89;2139684;83;21321;-61
2020/12/07 03:10:40;;;;;;;27.42;9.68;;;;;;;1.01;82.29;98295.45;2129013;83;21630;-61
2020/12/07 03:13:41;;;;;;;27.20;9.65;;;;;;;0.99;82.16;98298.09;2123025;84;21281;-62
2020/12/07 03:16:42;;;;;;;26.07;9.65;;;;;;;0.96;82.10;98292.16;2122615;84;21293;-61
2020/12/07 03:19:43;;;;;;;26.50;9.55;;;;;;;0.95;82.09;98290.45;2122486;84;21166;-61
2020/12/07 03:22:45;;;;;;;25.02;9.00;;;;;;;0.94;82.09;98268.96;2122835;84;21721;-61
2020/12/07 03:25:47;;;;;;;25.43;9.85;;;;;;;0.91;82.07;98272.94;2122618;84;21631;-61
2020/12/07 03:28:48;;;;;;;28.00;10.05;;;;;;;0.86;82.02;98270.50;2123013;83;21329;-61
2020/12/07 03:31:49;;;;;;;23.40;8.18;;;;;;;0.81;82.00;98243.13;2122644;84;21313;-61
2020/12/07 03:34:51;;;;;;;24.50;9.13;;;;;;;0.74;82.05;98248.08;2122595;84;21607;-61
2020/12/07 03:37:52;;;;;;;24.52;8.73;;;;;;;0.70;82.09;98264.09;2123122;84;21150;-61
2020/12/07 03:40:53;;;;;;;29.02;9.83;;;;;;;0.65;82.35;98255.20;2122762;84;21289;-61
2020/12/07 03:43:54;;;;;;;25.85;9.05;;;;;;;0.59;82.19;98264.43;2122799;84;21309;-61
2020/12/07 03:46:56;;;;;;;24.60;9.83;;;;;;;0.57;82.23;98273.10;2122644;84;21734;-61
2020/12/07 03:49:57;;;;;;;26.57;8.73;;;;;;;0.56;82.26;98285.17;2123166;84;21147;-61
2020/12/07 03:52:58;;;;;;;24.37;8.65;;;;;;;0.59;82.30;98280.34;2122812;84;21282;-61
2020/12/07 03:55:59;;;;;;;25.23;9.25;;;;;;;0.59;82.43;98290.23;2122859;84;21305;-61
2020/12/07 03:59:01;;;;;;;26.20;9.23;;;;;;;0.58;82.33;98300.16;2123092;84;21171;-61
2020/12/07 04:02:02;;;;;;;25.37;8.93;;;;;;;0.60;82.33;98297.52;2123093;84;21289;-61
2020/12/07 04:05:09;;;;;;;27.97;9.33;;;;;;;0.63;82.25;98297.43;2122877;84;21131;-61
2020/12/07 04:08:07;;;;;;;26.50;9.80;;;;;;;0.65;82.27;98299.08;2122034;84;21285;-60
2020/12/07 04:11:08;;;;;;;24.72;9.48;;;;;;;0.66;82.14;98301.20;2134604;83;21163;-61
2020/12/07 04:14:09;;;;;;;26.42;9.10;;;;;;;0.66;82.09;98294.33;2139668;83;21317;-61
2020/12/07 04:17:10;;;;;;;26.23;9.58;;;;;;;0.65;82.10;98281.02;2139780;83;21281;-61
2020/12/07 04:20:11;;;;;;;25.02;9.23;;;;;;;0.64;81.99;98278.02;2139529;83;21709;-61
2020/12/07 04:23:12;;;;;;;22.82;8.28;;;;;;;0.67;81.91;98280.97;2139342;83;21158;-61
2020/12/07 04:26:13;;;;;;;26.30;9.00;;;;;;;0.64;81.91;98272.03;2139459;83;21273;-61
2020/12/07 04:29:15;;;;;;;27.55;9.58;;;;;;;0.57;81.99;98270.52;2139792;83;21289;-61
2020/12/07 04:32:17;;;;;;;23.80;8.58;;;;;;;0.52;81.92;98266.79;2139648;83;21146;-61
2020/12/07 04:35:18;;;;;;;26.87;10.00;;;;;;;0.46;82.18;98269.10;2139423;83;21154;-61
2020/12/07 04:38:20;;;;;;;25.75;9.53;;;;;;;0.45;82.11;98267.86;2139413;83;21650;-61
2020/12/07 04:41:21;;;;;;;23.65;8.58;;;;;;;0.43;82.17;98270.48;2139875;83;21304;-61
2020/12/07 04:44:22;;;;;;;26.73;9.78;;;;;;;0.39;82.45;98257.69;2139383;83;21175;-61
2020/12/07 04:47:23;;;;;;;26.95;8.90;;;;;;;0.34;82.37;98243.22;2139598;83;21711;-61
2020/12/07 04:50:24;;;;;;;24.32;8.80;;;;;;;0.33;82.28;98254.41;2139916;83;21297;-61
2020/12/07 04:53:25;;;;;;;25.75;9.13;;;;;;;0.32;82.18;98260.45;2139870;83;21293;-62
2020/12/07 04:56:27;;;;;;;25.62;9.00;;;;;;;0.28;82.55;98262.72;2139367;83;21625;-61
2020/12/07 04:59:28;;;;;;;25.02;9.33;;;;;;;0.23;82.45;98250.41;2112946;83;21741;-61
2020/12/07 05:02:29;;;;;;;25.45;9.50;;;;;;;0.22;82.43;98252.58;2139362;83;21182;-61
2020/12/07 05:05:30;;;;;;;27.58;9.35;;;;;;;0.19;82.51;98241.06;2139698;83;21143;-61
2020/12/07 05:08:32;;;;;;;27.52;9.65;;;;;;;0.15;82.75;98240.29;2139722;83;21594;-61
2020/12/07 05:11:34;;;;;;;26.00;9.88;;;;;;;0.13;82.86;98231.77;2139447;83;21260;-61
2020/12/07 05:14:35;;;;;;;27.25;9.43;;;;;;;0.15;82.68;98253.64;2139463;83;21182;-61
2020/12/07 05:17:36;;;;;;;25.80;9.88;;;;;;;0.18;83.07;98247.11;2139398;83;21320;-61
2020/12/07 05:20:37;;;;;;;28.23;10.53;;;;;;;0.19;83.08;98233.33;2139323;83;21162;-61
2020/12/07 05:23:39;;;;;;;27.10;9.93;;;;;;;0.19;82.78;98230.75;2139439;83;21753;-61
2020/12/07 05:26:41;;;;;;;26.23;10.03;;;;;;;0.20;82.78;98243.19;2139302;83;21158;-61
2020/12/07 05:29:51;;;;;;;26.35;9.58;;;;;;;0.17;83.00;98238.95;2139842;83;21720;-61
2020/12/07 05:32:49;;;;;;;26.45;10.38;;;;;;;0.22;82.79;98228.08;2139008;83;21721;-61
2020/12/07 05:35:53;;;;;;;26.45;10.25;;;;;;;0.20;82.67;98222.55;2139361;83;21142;-61
2020/12/07 05:38:55;;;;;;;24.18;9.20;;;;;;;0.16;82.71;98226.52;2139514;83;21582;-61
2020/12/07 05:41:56;;;;;;;28.10;10.32;;;;;;;0.13;83.01;98234.34;2139574;83;21297;-61
2020/12/07 05:44:57;;;;;;;29.92;10.95;;;;;;;0.12;82.86;98237.80;2139418;83;21198;-61
2020/12/07 05:47:59;;;;;;;28.73;11.12;;;;;;;0.10;83.09;98231.86;2139304;83;21611;-61
2020/12/07 05:51:00;;;;;;;26.33;10.13;;;;;;;0.08;82.71;98231.03;2139617;83;21567;-61
2020/12/07 05:54:02;;;;;;;28.60;11.05;;;;;;;0.04;83.30;98237.62;2139965;83;21273;-61
2020/12/07 05:57:03;;;;;;;27.58;10.58;;;;;;;0.02;82.89;98241.53;2139269;83;21210;-61
2020/12/07 06:00:04;;;;;;;28.38;11.30;;;;;;;0.03;82.91;98244.94;2139421;83;21158;-60
2020/12/07 06:03:05;;;;;;;28.50;10.68;;;;;;;-0.01;83.26;98228.27;2139814;83;21312;-61
2020/12/07 06:06:06;;;;;;;26.77;9.23;;;;;;;-0.04;83.42;98229.66;2139444;83;21147;-61
2020/12/07 06:09:08;;;;;;;27.93;10.08;;;;;;;-0.05;83.31;98233.56;2139591;83;21586;-61
2020/12/07 06:12:09;;;;;;;28.70;10.20;;;;;;;-0.07;83.60;98237.89;2139233;83;21293;-61
2020/12/07 06:15:10;;;;;;;27.48;10.80;;;;;;;-0.05;83.52;98256.77;2139622;83;21138;-61
2020/12/07 06:18:12;;;;;;;27.85;10.40;;;;;;;-0.05;83.61;98246.45;2139367;83;21131;-61
2020/12/07 06:21:13;;;;;;;26.07;10.10;;;;;;;-0.03;83.49;98245.53;2112658;83;21285;-60
2020/12/07 06:24:16;;;;;;;25.65;8.88;;;;;;;-0.02;83.53;98239.92;2139932;83;21289;-61
2020/12/07 06:27:17;;;;;;;28.62;10.63;;;;;;;-0.02;83.91;98247.20;2139400;83;21171;-61
2020/12/07 06:30:18;;;;;;;27.55;10.90;;;;;;;-0.01;83.48;98254.06;2139457;83;21174;-61
2020/12/07 06:33:19;;;;;;;26.15;9.95;;;;;;;0.01;83.65;98264.78;2139322;83;21150;-61
2020/12/07 06:36:20;;;;;;;27.70;10.03;;;;;;;0.04;83.33;98267.27;2139402;83;21577;-61
2020/12/07 06:39:22;;;;;;;27.48;10.15;;;;;;;0.08;83.25;98252.12;2139440;83;21187;-61
2020/12/07 06:42:23;;;;;;;28.87;11.48;;;;;;;0.08;83.27;98249.09;2139562;83;21130;-61
2020/12/07 06:45:24;;;;;;;26.15;9.85;;;;;;;0.12;83.12;98264.88;2139431;83;21154;-61
2020/12/07 06:48:25;;;;;;;24.20;9.53;;;;;;;0.13;83.10;98247.66;2139314;83;21578;-61
2020/12/07 06:51:27;;;;;;;28.00;10.95;;;;;;;0.17;83.19;98244.11;2112792;83;21701;-61
2020/12/07 06:57:48;;;;;;;26.35;9.05;;;;;;;0.21;83.17;98247.47;2139459;83;21172;-61
2020/12/07 07:00:49;;;;;;;27.80;9.93;;;;;;;0.24;82.89;98266.72;2139301;83;21166;-61
2020/12/07 07:03:50;;;;;;;28.67;10.80;;;;;;;0.27;82.88;98264.89;2139445;83;21708;-61
2020/12/07 07:06:52;;;;;;;27.45;11.10;;;;;;;0.32;82.74;98282.38;2139542;83;21571;-61
2020/12/07 07:09:53;;;;;;;26.12;10.35;;;;;;;0.37;82.61;98269.80;2139795;83;21320;-61
2020/12/07 07:12:54;;;;;;;25.65;10.40;;;;;;;0.41;82.49;98270.13;2139410;83;21163;-61
2020/12/07 07:15:55;;;;;;;26.77;10.80;;;;;;;0.47;82.37;98272.06;2139448;83;21119;-61
2020/12/07 07:18:57;;;;;;;28.38;10.90;;;;;;;0.56;82.18;98263.23;2139503;83;21179;-61
2020/12/07 07:21:58;;;;;;;24.65;9.28;;;;;;;0.61;82.00;98271.66;2139551;83;21320;-61
2020/12/07 07:25:07;;;;;;;28.07;11.53;;;;;;;0.67;81.81;98270.19;2139478;83;21159;-61
2020/12/07 07:28:08;;;;;;;29.32;11.00;;;;;;;0.74;81.76;98270.02;2139260;83;21623;-61
2020/12/07 07:31:10;;;;;;;28.38;10.88;;;;;;;0.77;81.47;98271.22;2139992;83;21535;-61
2020/12/07 07:34:11;;;;;;;26.35;10.55;;;;;;;0.80;81.46;98265.50;2139484;83;21150;-61
2020/12/07 07:37:12;;;;;;;28.92;10.32;;;;;;;0.90;81.30;98266.53;2139549;83;22295;-61
2020/12/07 07:40:14;;;;;;;29.70;11.10;;;;;;;0.95;81.11;98271.09;2139730;83;21289;-61
2020/12/07 07:43:15;;;;;;;25.10;10.20;;;;;;;1.00;81.01;98276.52;2139962;83;21285;-61
2020/12/07 07:46:16;;;;;;;27.60;11.22;;;;;;;1.06;80.71;98276.77;2139444;83;21626;-61
2020/12/07 07:49:28;;;;;;;27.80;10.70;;;;;;;1.12;80.69;98270.14;2139974;83;21115;-61
2020/12/07 07:53:02;;;;;;;29.02;10.98;;;;;;;1.23;80.66;98280.12;2137580;83;21572;-61
2020/12/07 08:13:02;;;;;;;29.60;11.60;;;;;;;1.93;78.10;98264.45;2126690;83;21290;-61
2020/12/07 08:15:54;;;;;;;31.42;11.12;;;;;;;2.05;78.14;98282.58;2121615;84;21265;-61
2020/12/07 08:18:58;;;;;;;27.65;10.18;;;;;;;2.14;77.21;98283.98;2102592;84;21706;-61
2020/12/07 08:21:59;;;;;;;30.45;11.65;;;;;;;2.22;77.40;98293.16;2122590;84;21333;-61
2020/12/07 08:25:01;;;;;;;29.07;10.85;;;;;;;2.28;77.29;98281.75;2122702;84;21749;-61
2020/12/07 08:28:03;;;;;;;28.87;11.22;;;;;;;2.33;76.25;98278.56;2122868;84;21182;-61
2020/12/07 08:31:04;;;;;;;27.52;10.82;;;;;;;2.40;76.65;98302.03;2122605;84;21297;-61
2020/12/07 08:34:08;;;;;;;27.62;10.85;;;;;;;2.46;75.82;98282.84;2122792;84;21301;-61
2020/12/07 08:37:09;;;;;;;27.52;10.60;;;;;;;2.48;76.20;98305.62;2122975;84;21741;-61
2020/12/07 08:40:10;;;;;;;28.35;11.08;;;;;;;2.46;75.35;98287.16;2123081;84;21119;-61
2020/12/07 08:43:11;;;;;;;29.95;11.55;;;;;;;2.34;76.15;98306.14;2122952;83;21305;-61
2020/12/07 08:46:12;;;;;;;26.60;10.82;;;;;;;2.22;76.46;98307.86;2122581;84;21281;-61
2020/12/07 08:49:13;;;;;;;26.35;10.30;;;;;;;2.16;76.68;98309.37;2123036;84;21274;-61
2020/12/07 08:52:14;;;;;;;28.05;11.12;;;;;;;2.15;76.28;98323.20;2122874;84;21286;-61
2020/12/07 08:55:16;;;;;;;32.40;13.48;;;;;;;2.13;76.80;98324.55;2122732;84;21721;-61
2020/12/07 08:58:18;;;;;;;27.85;11.03;;;;;;;2.21;77.14;98320.39;2123241;84;21147;-61
2020/12/07 09:01:19;;;;;;;26.30;11.08;;;;;;;2.22;76.91;98322.09;2122705;84;21167;-61
2020/12/07 09:04:20;;;;;;;29.40;10.80;;;;;;;2.12;76.55;98309.92;2123139;84;21714;-61
2020/12/07 09:07:22;;;;;;;30.32;11.15;;;;;;;2.08;76.52;98331.62;2122678;84;21277;-61
2020/12/07 09:10:23;;;;;;;29.75;11.35;;;;;;;2.07;76.96;98323.48;2122611;83;21131;-61
2020/12/07 09:13:24;;;;;;;31.60;11.53;;;;;;;2.13;76.56;98328.90;2122644;83;21265;-61
2020/12/07 09:16:25;;;;;;;28.05;11.05;;;;;;;2.15;76.73;98317.57;2123085;84;21163;-61
2020/12/07 09:19:27;;;;;;;29.32;11.88;;;;;;;2.14;76.24;98309.44;2123227;83;21308;-61
2020/12/07 09:22:29;;;;;;;30.95;11.08;;;;;;;2.06;76.30;98319.20;2123039;84;21333;-61
2020/12/07 09:25:30;;;;;;;28.20;10.25;;;;;;;2.04;76.41;98318.39;2122637;84;21285;-61
2020/12/07 09:28:31;;;;;;;28.60;10.63;;;;;;;2.01;76.08;98310.31;2122789;83;21286;-61
2020/12/07 09:31:32;;;;;;;29.20;11.45;;;;;;;2.01;76.31;98309.02;2122634;84;21735;-61
2020/12/07 09:34:34;;;;;;;31.60;11.35;;;;;;;2.01;76.72;98302.55;2122633;84;21313;-61
2020/12/07 09:37:36;;;;;;;29.37;11.50;;;;;;;2.06;76.23;98322.63;2123045;84;21293;-61
2020/12/07 09:40:38;;;;;;;29.27;11.15;;;;;;;2.09;76.03;98307.45;2122964;84;21722;-61
2020/12/07 09:43:39;;;;;;;28.20;11.05;;;;;;;2.12;76.16;98297.44;2122672;84;21737;-61
2020/12/07 09:46:40;;;;;;;29.40;10.48;;;;;;;2.14;75.81;98301.67;2122650;84;21290;-61
2020/12/07 09:49:41;;;;;;;32.05;11.53;;;;;;;2.19;76.08;98300.21;2122790;84;21729;-62
2020/12/07 09:52:50;;;;;;;31.12;11.97;;;;;;;2.22;75.89;98293.16;2122546;84;21289;-61
2020/12/07 09:55:51;;;;;;;27.75;11.48;;;;;;;2.28;76.23;98293.86;2122556;83;21293;-61
2020/12/07 09:58:53;;;;;;;30.80;11.83;;;;;;;2.33;75.66;98291.94;2123062;83;21134;-61
2020/12/07 10:01:54;;;;;;;27.45;10.90;;;;;;;2.36;75.53;98297.86;2123024;84;21297;-61
2020/12/07 10:04:56;;;;;;;27.58;10.35;;;;;;;2.38;75.74;98286.98;2122271;84;21096;-61
2020/12/07 10:07:58;;;;;;;29.37;11.43;;;;;;;2.41;74.84;98278.27;2122570;84;21277;-61
2020/12/07 10:10:59;;;;;;;29.67;10.72;;;;;;;2.43;75.66;98291.56;2123647;83;21277;-61
2020/12/07 10:14:01;;;;;;;33.28;11.38;;;;;;;2.55;75.15;98295.90;2139759;83;21110;-61
2020/12/07 10:17:02;;;;;;;33.92;12.58;;;;;;;2.59;75.33;98303.95;2139553;83;21729;-61
2020/12/07 10:20:03;;;;;;;30.72;12.30;;;;;;;2.69;75.67;98311.77;2139574;83;21708;-61
2020/12/07 10:23:05;;;;;;;28.15;11.40;;;;;;;2.81;75.34;98297.97;2139329;83;21158;-61
2020/12/07 10:26:06;;;;;;;32.15;12.03;;;;;;;2.89;74.08;98293.34;2139293;83;21155;-61
2020/12/07 10:29:07;;;;;;;28.20;11.73;;;;;;;2.90;73.63;98289.83;2139864;83;21265;-61
2020/12/07 10:32:08;;;;;;;27.22;11.18;;;;;;;2.94;74.01;98299.18;2139298;83;21170;-61
2020/12/07 10:35:09;;;;;;;29.30;11.63;;;;;;;2.92;73.78;98299.24;2139412;83;21186;-61
2020/12/07 10:38:11;;;;;;;28.12;11.25;;;;;;;2.87;73.21;98306.80;2139832;83;21724;-61
2020/12/07 10:41:13;;;;;;;32.33;11.90;;;;;;;2.90;74.28;98309.27;2139319;83;21649;-61
2020/12/07 10:44:14;;;;;;;28.83;11.30;;;;;;;2.94;74.00;98301.34;2139764;83;21285;-61
2020/12/07 10:47:18;;;;;;;29.07;11.30;;;;;;;2.95;73.97;98298.28;2139510;83;21155;-61
2020/12/07 10:50:20;;;;;;;28.95;10.98;;;;;;;2.94;73.34;98301.34;2140013;83;21297;-61
2020/12/07 10:53:23;;;;;;;28.23;11.35;;;;;;;2.99;73.49;98300.29;2139518;83;21175;-62
2020/12/07 10:56:24;;;;;;;27.73;10.60;;;;;;;3.04;73.37;98299.21;2139738;83;21288;-61
2020/12/07 10:59:25;;;;;;;29.75;11.03;;;;;;;3.04;73.39;98305.69;2139533;83;21147;-61
2020/12/07 11:02:26;;;;;;;28.35;11.30;;;;;;;3.05;73.70;98309.14;2139683;83;21729;-61
2020/12/07 11:05:28;;;;;;;29.67;11.08;;;;;;;3.09;73.78;98309.42;2139726;83;21281;-61
2020/12/07 11:08:34;;;;;;;29.57;11.03;;;;;;;3.12;73.24;98325.68;2139615;83;21151;-61
2020/12/07 11:11:34;;;;;;;32.50;11.28;;;;;;;3.17;73.88;98329.39;2139612;83;21716;-61
2020/12/07 11:14:36;;;;;;;30.43;11.30;;;;;;;3.25;73.34;98313.09;2139708;83;21155;-62
2020/12/07 11:17:37;;;;;;;32.65;11.48;;;;;;;3.18;73.07;98303.87;2139659;83;21725;-61
2020/12/07 11:20:39;;;;;;;28.97;11.07;;;;;;;3.06;72.88;98297.86;2140116;83;21717;-61
2020/12/07 11:23:42;;;;;;;40.67;17.02;;;;;;;3.06;72.88;98297.86;2139569;83;21594;-61
2020/12/07 11:26:43;;;;;;;40.20;14.80;;;;;;;3.06;73.41;98287.06;2139809;83;21281;-61
2020/12/07 11:29:44;;;;;;;29.40;11.25;;;;;;;3.04;73.42;98293.20;2139578;83;21297;-61
2020/12/07 11:32:45;;;;;;;29.10;10.40;;;;;;;3.02;72.52;98288.54;2139518;83;21159;-61
2020/12/07 11:35:46;;;;;;;27.32;10.88;;;;;;;2.99;72.87;98280.43;2139432;83;21170;-61
2020/12/07 11:38:52;;;;;;;30.95;11.63;;;;;;;3.04;73.18;98278.95;2139596;83;21324;-61
2020/12/07 11:42:00;;;;;;;34.40;12.15;;;;;;;3.04;72.98;98283.66;2139632;83;21281;-62
2020/12/07 11:44:59;;;;;;;30.05;11.45;;;;;;;3.05;72.79;98284.53;2139343;83;21721;-61
2020/12/07 11:48:00;;;;;;;31.97;12.13;;;;;;;3.04;72.61;98291.44;2139452;83;21127;-61
2020/12/07 11:51:01;;;;;;;32.40;11.45;;;;;;;2.98;72.89;98285.20;2139586;83;21281;-61
2020/12/07 11:54:02;;;;;;;32.17;12.50;;;;;;;2.93;73.30;98285.39;2139925;83;21273;-61
2020/12/07 11:57:03;;;;;;;37.48;14.40;;;;;;;2.91;73.31;98283.76;2139652;83;21272;-61
2020/12/07 12:00:04;;;;;;;46.35;17.82;;;;;;;2.89;73.13;98281.23;2139688;83;21308;-61
2020/12/07 12:03:05;;;;;;;57.85;20.48;;;;;;;2.90;73.40;98291.13;2139937;83;21305;-61
2020/12/07 12:06:07;;;;;;;72.92;25.10;;;;;;;2.89;73.78;98292.89;2139396;83;21170;-61
2020/12/07 12:09:08;;;;;;;55.00;18.70;;;;;;;2.90;73.76;98285.52;2139865;83;21284;-62
2020/12/07 12:12:09;;;;;;;63.45;23.35;;;;;;;2.89;73.22;98295.94;2139663;83;21309;-61
2020/12/07 12:15:10;;;;;;;56.60;20.43;;;;;;;2.81;73.34;98278.08;2139392;83;21629;-62
2020/12/07 12:18:11;;;;;;;50.35;18.30;;;;;;;2.75;73.07;98265.38;2139468;83;21142;-61
2020/12/07 12:21:12;;;;;;;82.72;29.23;;;;;;;2.74;73.47;98278.78;2140025;83;21312;-62
2020/12/07 12:24:13;;;;;;;38.08;12.15;;;;;;;2.77;73.89;98278.66;2139520;83;21342;-61
2020/12/07 12:27:15;;;;;;;38.70;12.07;;;;;;;2.77;73.64;98285.14;2139524;83;21729;-61
2020/12/07 12:30:16;;;;;;;63.48;18.45;;;;;;;2.77;73.60;98286.86;2139429;83;21166;-61
2020/12/07 12:33:18;;;;;;;75.52;24.67;;;;;;;2.78;73.92;98290.69;2139706;83;21289;-61
2020/12/07 12:36:20;;;;;;;54.15;18.92;;;;;;;2.80;73.82;98294.98;2139989;83;21297;-61
2020/12/07 12:39:21;;;;;;;69.72;28.02;;;;;;;2.78;73.48;98289.39;2139448;83;21728;-61
2020/12/07 12:42:23;;;;;;;131.30;54.65;;;;;;;2.76;73.73;98294.27;2139492;83;21281;-62
2020/12/07 12:45:24;;;;;;;63.17;18.32;;;;;;;2.76;74.04;98290.38;2139521;83;21163;-62
2020/12/07 12:48:25;;;;;;;35.10;12.10;;;;;;;2.75;73.65;98295.98;2139659;83;21574;-61
2020/12/07 12:51:26;;;;;;;35.23;12.28;;;;;;;2.74;73.93;98300.80;2139380;83;21171;-61
2020/12/07 12:54:27;;;;;;;37.20;13.62;;;;;;;2.75;73.59;98295.98;2139845;83;21293;-62
2020/12/07 12:57:29;;;;;;;85.42;28.70;;;;;;;2.78;74.10;98301.05;2139381;83;21186;-61
2020/12/07 13:00:31;;;;;;;36.65;13.25;;;;;;;2.83;74.09;98288.38;2139528;83;21733;-61
2020/12/07 13:03:33;;;;;;;48.25;19.80;;;;;;;2.79;72.94;98287.67;2139398;83;21163;-61
2020/12/07 13:06:34;;;;;;;53.25;20.65;;;;;;;2.73;72.90;98292.63;2139793;83;21296;-61
2020/12/07 13:09:35;;;;;;;55.55;18.87;;;;;;;2.72;73.59;98312.11;2139386;83;21135;-61
2020/12/07 13:12:36;;;;;;;36.08;12.58;;;;;;;2.68;73.28;98305.35;2134974;83;21129;-61
2020/12/07 13:15:43;;;;;;;36.25;11.63;;;;;;;2.62;72.65;98296.06;2122665;83;21157;-62
2020/12/07 13:18:45;;;;;;;35.40;12.85;;;;;;;2.55;73.15;98289.42;2122068;84;21281;-61
2020/12/07 13:21:48;;;;;;;37.38;14.33;;;;;;;2.47;72.62;98293.60;2122621;83;21191;-61
2020/12/07 13:24:52;;;;;;;33.42;12.45;;;;;;;2.42;73.03;98283.39;2122548;84;21317;-61
2020/12/07 13:27:54;;;;;;;31.48;12.10;;;;;;;2.40;72.07;98268.84;2122195;84;21749;-61
2020/12/07 13:30:55;;;;;;;31.73;12.28;;;;;;;2.36;72.59;98290.09;2122813;84;21312;-61
2020/12/07 13:33:56;;;;;;;28.00;10.80;;;;;;;2.33;72.58;98315.23;2122482;84;21257;-62
2020/12/07 13:36:57;;;;;;;32.75;10.85;;;;;;;2.29;72.72;98320.14;2122545;84;21302;-61
2020/12/07 13:39:58;;;;;;;31.17;10.82;;;;;;;2.23;72.75;98319.45;2123161;84;21171;-61
2020/12/07 13:43:00;;;;;;;30.57;11.08;;;;;;;2.20;72.86;98327.33;2122505;84;21143;-61
2020/12/07 13:46:01;;;;;;;30.95;11.43;;;;;;;2.19;72.62;98324.80;2122492;84;21151;-61
2020/12/07 13:49:03;;;;;;;36.53;13.75;;;;;;;2.14;72.56;98325.39;2122688;83;21163;-61
2020/12/07 13:52:05;;;;;;;31.27;12.63;;;;;;;2.10;72.77;98332.43;2122929;84;21730;-62
2020/12/07 13:55:06;;;;;;;32.05;12.70;;;;;;;2.06;72.52;98337.31;2122500;84;21128;-61
2020/12/07 13:58:08;;;;;;;29.23;11.27;;;;;;;2.06;72.92;98336.02;2123305;83;21585;-61
2020/12/07 14:01:10;;;;;;;29.25;10.95;;;;;;;2.01;72.90;98319.36;2122785;83;21277;-61
2020/12/07 14:04:27;;;;;;;30.37;11.03;;;;;;;1.98;73.04;98322.48;2122961;84;21710;-61
2020/12/07 14:07:17;;;;;;;31.82;12.37;;;;;;;1.89;73.01;98312.01;2119676;84;21725;-61
2020/12/07 14:10:19;;;;;;;31.35;11.33;;;;;;;1.83;73.30;98313.06;2123032;83;21293;-61
2020/12/07 14:13:20;;;;;;;30.32;11.12;;;;;;;1.80;73.45;98312.33;2130132;83;21729;-61
2020/12/07 14:16:22;;;;;;;30.52;10.82;;;;;;;1.74;72.99;98312.09;2139411;83;21633;-61
2020/12/07 14:19:27;;;;;;;31.68;10.78;;;;;;;1.66;73.09;98314.08;2112700;83;21269;-61
2020/12/07 14:26:04;;;;;;;27.02;9.45;;;;;;;1.49;72.96;98313.33;2139632;83;21269;-62
2020/12/07 14:42:35;;;;;;;33.35;12.65;;;;;;;1.25;73.61;98326.58;2139459;83;21123;-61